Time,TemperatureF,DewpointF,PressureIn,WindDirection,WindDirectionDegrees,WindSpeedMPH,WindSpeedGustMPH,Humidity,HourlyPrecipIn,Conditions,Clouds,dailyrainin,SoftwareType,DateUTC
2013-02-17 00:00:00,27.5,14.0,30.06,East,94,1.0,1.0,56,0.00,,,0.03,weatherlink.com 1.10,2013-02-17 05:00:00,
2013-02-17 00:15:00,27.0,14.0,30.06,East,93,0.0,1.0,58,0.00,,,0.00,weatherlink.com 1.10,2013-02-17 05:15:00,
2013-02-17 00:30:00,26.2,16.0,30.06,NE,46,0.0,2.0,65,0.00,,,0.00,weatherlink.com 1.10,2013-02-17 05:30:00,
2013-02-17 00:45:00,26.2,14.0,30.07,SSE,156,1.0,1.0,59,0.00,,,0.00,weatherlink.com 1.10,2013-02-17 05:45:00,
2013-02-17 01:00:00,25.2,14.0,30.07,SSE,156,0.0,1.0,62,0.00,,,0.00,weatherlink.com 1.10,2013-02-17 06:00:00,
2013-02-17 01:15:00,25.2,13.0,30.07,East,92,0.0,2.0,61,0.00,,,0.00,weatherlink.com 1.10,2013-02-17 06:15:00,
2013-02-17 01:30:00,25.9,12.0,30.08,North,352,0.0,2.0,57,0.00,,,0.00,weatherlink.com 1.10,2013-02-17 06:30:00,
2013-02-17 01:45:00,26.3,9.0,30.07,East,88,1.0,5.0,49,0.00,,,0.00,weatherlink.com 1.10,2013-02-17 06:45:00,
2013-02-17 02:00:00,26.9,9.0,30.08,NNE,33,3.0,7.0,46,0.00,,,0.00,weatherlink.com 1.10,2013-02-17 07:00:00,
2013-02-17 02:15:00,27.0,7.0,30.08,NNE,32,0.0,4.0,42,0.00,,,0.00,weatherlink.com 1.10,2013-02-17 07:15:00,
2013-02-17 02:30:00,26.7,7.0,30.08,SE,124,4.0,5.0,44,0.00,,,0.00,weatherlink.com 1.10,2013-02-17 07:30:00,
2013-02-17 02:45:00,26.6,7.0,30.08,ESE,107,2.0,3.0,44,0.00,,,0.00,weatherlink.com 1.10,2013-02-17 07:45:00,
2013-02-17 03:00:00,26.5,8.0,30.09,NE,43,3.0,3.0,45,0.00,,,0.00,weatherlink.com 1.10,2013-02-17 08:00:00,
2013-02-17 03:15:00,26.7,8.0,30.09,WNW,303,4.0,4.0,45,0.00,,,0.00,weatherlink.com 1.10,2013-02-17 08:15:00,
2013-02-17 03:30:00,26.5,9.0,30.09,ENE,60,0.0,3.0,47,0.00,,,0.00,weatherlink.com 1.10,2013-02-17 08:30:00,
2013-02-17 03:45:00,26.3,6.0,30.09,ESE,122,1.0,6.0,43,0.00,,,0.00,weatherlink.com 1.10,2013-02-17 08:45:00,
2013-02-17 04:00:00,26.1,8.0,30.10,NNE,20,1.0,8.0,47,0.00,,,0.00,weatherlink.com 1.10,2013-02-17 09:00:00,
2013-02-17 04:15:00,26.1,7.0,30.11,North,5,4.0,4.0,44,0.00,,,0.00,weatherlink.com 1.10,2013-02-17 09:15:00,
2013-02-17 04:30:00,26.2,7.0,30.11,ESE,115,2.0,6.0,44,0.00,,,0.00,weatherlink.com 1.10,2013-02-17 09:30:00,
2013-02-17 04:45:00,26.0,8.0,30.11,SE,127,0.0,4.0,47,0.00,,,0.00,weatherlink.com 1.10,2013-02-17 09:45:00,
2013-02-17 05:00:00,24.7,9.0,30.11,ESE,109,0.0,1.0,51,0.00,,,0.00,weatherlink.com 1.10,2013-02-17 10:00:00,
2013-02-17 05:15:00,25.5,8.0,30.12,South,187,0.0,6.0,48,0.00,,,0.00,weatherlink.com 1.10,2013-02-17 10:15:00,
2013-02-17 05:30:00,24.3,11.0,30.12,WSW,244,1.0,2.0,58,0.00,,,0.00,weatherlink.com 1.10,2013-02-17 10:30:00,
2013-02-17 05:45:00,24.0,9.0,30.13,SSE,155,0.0,3.0,52,0.00,,,0.00,weatherlink.com 1.10,2013-02-17 10:45:00,
2013-02-17 06:00:00,24.0,9.0,30.14,North,9,0.0,5.0,53,0.00,,,0.00,weatherlink.com 1.10,2013-02-17 11:00:00,
2013-02-17 06:15:00,23.9,8.0,30.15,SSW,200,0.0,2.0,52,0.00,,,0.00,weatherlink.com 1.10,2013-02-17 11:15:00,
2013-02-17 06:30:00,23.2,9.0,30.15,ENE,77,0.0,2.0,56,0.00,,,0.00,weatherlink.com 1.10,2013-02-17 11:30:00,
2013-02-17 06:45:00,23.7,8.0,30.15,NE,43,4.0,5.0,51,0.00,,,0.00,weatherlink.com 1.10,2013-02-17 11:45:00,
2013-02-17 07:01:00,24.3,8.0,30.15,North,1,0.0,1.0,50,0.00,,,0.00,weatherlink.com 1.10,2013-02-17 12:01:00,
2013-02-17 07:16:00,24.4,7.0,30.16,SSW,194,1.0,3.0,48,0.00,,,0.00,weatherlink.com 1.10,2013-02-17 12:16:00,
2013-02-17 07:31:00,24.2,9.0,30.16,SSW,195,1.0,2.0,52,0.00,,,0.00,weatherlink.com 1.10,2013-02-17 12:31:00,
2013-02-17 07:46:00,24.3,8.0,30.17,NE,51,0.0,6.0,51,0.00,,,0.00,weatherlink.com 1.10,2013-02-17 12:46:00,
2013-02-17 08:01:00,23.9,8.0,30.17,SW,225,1.0,1.0,52,0.00,,,0.00,weatherlink.com 1.10,2013-02-17 13:01:00,
2013-02-17 08:16:00,23.9,9.0,30.18,SW,236,1.0,3.0,53,0.00,,,0.00,weatherlink.com 1.10,2013-02-17 13:16:00,
2013-02-17 08:31:00,24.2,9.0,30.19,ESE,113,0.0,3.0,52,0.00,,,0.00,weatherlink.com 1.10,2013-02-17 13:31:00,
2013-02-17 08:46:00,24.4,9.0,30.19,SSE,165,1.0,2.0,52,0.00,,,0.00,weatherlink.com 1.10,2013-02-17 13:46:00,
2013-02-17 09:01:00,25.5,9.0,30.19,SSE,156,0.0,3.0,50,0.00,,,0.00,weatherlink.com 1.10,2013-02-17 14:01:00,
2013-02-17 09:16:00,26.6,8.0,30.20,ESE,112,1.0,2.0,46,0.00,,,0.00,weatherlink.com 1.10,2013-02-17 14:16:00,
2013-02-17 09:31:00,27.9,9.0,30.19,SSW,204,0.0,3.0,45,0.00,,,0.00,weatherlink.com 1.10,2013-02-17 14:31:00,
2013-02-17 09:46:00,29.0,9.0,30.20,SE,136,0.0,8.0,44,0.00,,,0.00,weatherlink.com 1.10,2013-02-17 14:46:00,
2013-02-17 10:01:00,29.5,11.0,30.20,SW,222,0.0,2.0,47,0.00,,,0.00,weatherlink.com 1.10,2013-02-17 15:01:00,
2013-02-17 10:16:00,30.8,11.0,30.20,NNW,337,1.0,3.0,43,0.00,,,0.00,weatherlink.com 1.10,2013-02-17 15:16:00,
2013-02-17 10:31:00,32.0,9.0,30.20,WNW,298,4.0,8.0,39,0.00,,,0.00,weatherlink.com 1.10,2013-02-17 15:31:00,
2013-02-17 10:46:00,33.5,10.0,30.20,NE,41,2.0,6.0,38,0.00,,,0.00,weatherlink.com 1.10,2013-02-17 15:46:00,
2013-02-17 11:01:00,34.3,12.0,30.20,NW,323,2.0,8.0,39,0.00,,,0.00,weatherlink.com 1.10,2013-02-17 16:01:00,
2013-02-17 11:16:00,35.3,9.0,30.20,NE,43,0.0,5.0,34,0.00,,,0.00,weatherlink.com 1.10,2013-02-17 16:16:00,
2013-02-17 11:31:00,36.4,9.0,30.20,North,1,3.0,7.0,32,0.00,,,0.00,weatherlink.com 1.10,2013-02-17 16:31:00,
2013-02-17 11:46:00,36.6,9.0,30.20,NNE,18,3.0,5.0,32,0.00,,,0.00,weatherlink.com 1.10,2013-02-17 16:46:00,
2013-02-17 12:01:00,38.4,11.0,30.20,North,360,4.0,8.0,32,0.00,,,0.00,weatherlink.com 1.10,2013-02-17 17:01:00,
2013-02-17 12:16:00,39.3,9.0,30.19,North,352,4.0,6.0,29,0.00,,,0.00,weatherlink.com 1.10,2013-02-17 17:16:00,
2013-02-17 12:31:00,39.5,9.0,30.19,North,1,1.0,7.0,28,0.00,,,0.00,weatherlink.com 1.10,2013-02-17 17:31:00,
2013-02-17 12:46:00,41.0,8.0,30.18,NW,308,3.0,7.0,26,0.00,,,0.00,weatherlink.com 1.10,2013-02-17 17:46:00,
2013-02-17 13:01:00,41.9,7.0,30.18,WNW,293,0.0,10.0,24,0.00,,,0.00,weatherlink.com 1.10,2013-02-17 18:01:00,
2013-02-17 13:16:00,42.2,9.0,30.17,North,11,5.0,9.0,25,0.00,,,0.00,weatherlink.com 1.10,2013-02-17 18:16:00,
2013-02-17 13:32:00,42.6,9.0,30.17,NNE,16,3.0,11.0,25,0.00,,,0.00,weatherlink.com 1.10,2013-02-17 18:32:00,
2013-02-17 13:47:00,43.6,10.0,30.16,NNE,27,2.0,6.0,25,0.00,,,0.00,weatherlink.com 1.10,2013-02-17 18:47:00,
2013-02-17 14:02:00,44.0,9.0,30.16,North,11,2.0,6.0,24,0.00,,,0.00,weatherlink.com 1.10,2013-02-17 19:02:00,
2013-02-17 14:17:00,44.6,11.0,30.15,NNW,340,2.0,6.0,25,0.00,,,0.00,weatherlink.com 1.10,2013-02-17 19:17:00,
2013-02-17 14:32:00,45.3,9.0,30.16,NW,308,5.0,6.0,23,0.00,,,0.00,weatherlink.com 1.10,2013-02-17 19:32:00,
2013-02-17 14:47:00,45.0,8.0,30.15,NW,318,4.0,10.0,22,0.00,,,0.00,weatherlink.com 1.10,2013-02-17 19:47:00,
2013-02-17 15:02:00,45.2,9.0,30.15,NW,304,1.0,6.0,23,0.00,,,0.00,weatherlink.com 1.10,2013-02-17 20:02:00,
2013-02-17 15:17:00,45.2,6.0,30.15,NNE,13,6.0,9.0,20,0.00,,,0.00,weatherlink.com 1.10,2013-02-17 20:17:00,
2013-02-17 15:32:00,45.6,8.0,30.16,WNW,301,6.0,6.0,21,0.00,,,0.00,weatherlink.com 1.10,2013-02-17 20:32:00,
2013-02-17 15:47:00,45.2,7.0,30.16,North,350,3.0,6.0,21,0.00,,,0.00,weatherlink.com 1.10,2013-02-17 20:47:00,
2013-02-17 16:02:00,45.6,7.0,30.16,North,352,3.0,6.0,20,0.00,,,0.00,weatherlink.com 1.10,2013-02-17 21:02:00,
2013-02-17 16:17:00,45.3,10.0,30.16,North,358,2.0,6.0,24,0.00,,,0.00,weatherlink.com 1.10,2013-02-17 21:17:00,
2013-02-17 16:32:00,44.7,9.0,30.17,NNE,13,6.0,6.0,23,0.00,,,0.00,weatherlink.com 1.10,2013-02-17 21:32:00,
2013-02-17 16:47:00,43.6,8.0,30.17,NW,316,3.0,9.0,23,0.00,,,0.00,weatherlink.com 1.10,2013-02-17 21:47:00,
2013-02-17 17:02:00,43.1,8.0,30.18,NE,41,4.0,6.0,24,0.00,,,0.00,weatherlink.com 1.10,2013-02-17 22:02:00,
2013-02-17 17:17:00,42.6,10.0,30.18,NW,323,1.0,4.0,26,0.00,,,0.00,weatherlink.com 1.10,2013-02-17 22:17:00,
2013-02-17 17:32:00,42.2,9.0,30.19,North,351,3.0,5.0,25,0.00,,,0.00,weatherlink.com 1.10,2013-02-17 22:32:00,
2013-02-17 17:47:00,41.1,8.0,30.20,NNE,13,1.0,4.0,25,0.00,,,0.00,weatherlink.com 1.10,2013-02-17 22:47:00,
2013-02-17 18:02:00,40.1,9.0,30.21,NNE,28,2.0,4.0,28,0.00,,,0.00,weatherlink.com 1.10,2013-02-17 23:02:00,
2013-02-17 18:17:00,39.3,9.0,30.21,NNE,18,2.0,7.0,28,0.00,,,0.00,weatherlink.com 1.10,2013-02-17 23:17:00,
2013-02-17 18:32:00,38.3,9.0,30.22,North,351,0.0,4.0,30,0.00,,,0.00,weatherlink.com 1.10,2013-02-17 23:32:00,
2013-02-17 18:47:00,37.0,10.0,30.23,NNE,17,0.0,2.0,32,0.00,,,0.00,weatherlink.com 1.10,2013-02-17 23:47:00,
2013-02-17 19:02:00,36.5,10.0,30.23,NW,326,0.0,1.0,34,0.00,,,0.00,weatherlink.com 1.10,2013-02-18 00:02:00,
2013-02-17 19:17:00,35.2,11.0,30.24,NE,37,1.0,1.0,37,0.00,,,0.00,weatherlink.com 1.10,2013-02-18 00:17:00,
2013-02-17 19:32:00,34.7,10.0,30.25,North,8,0.0,2.0,35,0.00,,,0.00,weatherlink.com 1.10,2013-02-18 00:32:00,
2013-02-17 19:47:00,34.1,11.0,30.25,NNE,22,0.0,1.0,39,0.00,,,0.00,weatherlink.com 1.10,2013-02-18 00:47:00,
2013-02-17 20:02:00,32.8,10.0,30.25,ESE,112,1.0,1.0,39,0.00,,,0.00,weatherlink.com 1.10,2013-02-18 01:02:00,
2013-02-17 20:17:00,31.8,10.0,30.26,North,9,0.0,1.0,40,0.00,,,0.00,weatherlink.com 1.10,2013-02-18 01:17:00,
2013-02-17 20:32:00,30.5,14.0,30.26,North,9,0.0,1.0,51,0.00,,,0.00,weatherlink.com 1.10,2013-02-18 01:32:00,
2013-02-17 20:47:00,29.2,16.0,30.26,North,9,0.0,1.0,57,0.00,,,0.00,weatherlink.com 1.10,2013-02-18 01:47:00,
2013-02-17 21:02:00,28.0,13.0,30.27,North,9,0.0,0.0,54,0.00,,,0.00,weatherlink.com 1.10,2013-02-18 02:02:00,
2013-02-17 21:17:00,27.6,14.0,30.27,North,9,1.0,1.0,57,0.00,,,0.00,weatherlink.com 1.10,2013-02-18 02:17:00,
2013-02-17 21:32:00,27.6,16.0,30.27,North,9,0.0,1.0,61,0.00,,,0.00,weatherlink.com 1.10,2013-02-18 02:32:00,
2013-02-17 21:47:00,26.8,14.0,30.28,North,9,0.0,0.0,60,0.00,,,0.00,weatherlink.com 1.10,2013-02-18 02:47:00,
2013-02-17 22:02:00,26.9,13.0,30.28,North,8,0.0,1.0,55,0.00,,,0.00,weatherlink.com 1.10,2013-02-18 03:02:00,
2013-02-17 22:17:00,26.6,15.0,30.29,North,9,0.0,1.0,63,0.00,,,0.00,weatherlink.com 1.10,2013-02-18 03:17:00,
2013-02-17 22:32:00,26.8,14.0,30.30,North,8,0.0,1.0,58,0.00,,,0.00,weatherlink.com 1.10,2013-02-18 03:32:00,
2013-02-17 22:47:00,27.4,16.0,30.29,ENE,78,1.0,1.0,63,0.00,,,0.00,weatherlink.com 1.10,2013-02-18 03:47:00,
2013-02-17 23:02:00,26.9,18.0,30.29,ENE,78,0.0,1.0,68,0.00,,,0.00,weatherlink.com 1.10,2013-02-18 04:02:00,
2013-02-17 23:17:00,26.2,17.0,30.29,ENE,78,0.0,0.0,69,0.00,,,0.00,weatherlink.com 1.10,2013-02-18 04:17:00,
2013-02-17 23:32:00,25.3,17.0,30.30,ENE,77,0.0,1.0,70,0.00,,,0.00,weatherlink.com 1.10,2013-02-18 04:32:00,
2013-02-17 23:47:00,24.9,18.0,30.29,ENE,78,0.0,1.0,74,0.00,,,0.00,weatherlink.com 1.10,2013-02-18 04:47:00,